Time;durP1;ratioP1;P1;durP2;ratioP2;P2;SDS_P1;SDS_P2;PMS_P1;PMS_P2;Temp;Humidity;BMP_temperature;BMP_pressure;BME280_temperature;BME280_humidity;BME280_pressure;Samples;Min_cycle;Max_cycle;Signal;HPM_P1;HPM_P2
2023/06/28 00:00:28;;;;;;;10.68;3.63;;;15.10;99.90;;;;;;4996825;28;20495;-71
2023/06/28 00:02:57;;;;;;;13.55;3.53;;;15.10;99.90;;;;;;4996770;28;20052;-70
2023/06/28 00:05:23;;;;;;;11.70;4.25;;;15.10;99.90;;;;;;5016094;28;20037;-70
2023/06/28 00:07:48;;;;;;;7.88;3.67;;;15.10;99.90;;;;;;5004898;28;20076;-71
2023/06/28 00:10:14;;;;;;;11.60;3.55;;;15.10;99.90;;;;;;5006688;28;20046;-71
2023/06/28 00:12:40;;;;;;;13.27;4.22;;;15.00;99.90;;;;;;4998795;28;20574;-71
2023/06/28 00:15:07;;;;;;;8.75;3.25;;;15.00;99.90;;;;;;5003898;28;20044;-71
2023/06/28 00:17:32;;;;;;;9.27;3.42;;;15.00;99.90;;;;;;5004910;28;20049;-70
2023/06/28 00:20:06;;;;;;;10.80;3.78;;;15.00;99.90;;;;;;4985063;28;20107;-71
2023/06/28 00:22:31;;;;;;;11.25;3.58;;;15.00;99.90;;;;;;5004656;28;20073;-71
2023/06/28 00:25:03;;;;;;;9.90;3.40;;;15.00;99.90;;;;;;5002505;28;20050;-71
2023/06/28 00:27:29;;;;;;;10.60;3.75;;;15.00;99.90;;;;;;4984210;28;20050;-71
2023/06/28 00:29:56;;;;;;;10.13;4.03;;;14.90;99.90;;;;;;5000822;28;20050;-71
2023/06/28 00:32:22;;;;;;;9.57;3.47;;;15.00;99.90;;;;;;5010215;28;20054;-71
2023/06/28 00:34:48;;;;;;;8.13;3.30;;;14.90;99.90;;;;;;5004739;28;20045;-70
2023/06/28 00:37:14;;;;;;;12.98;3.88;;;14.90;99.90;;;;;;5009507;28;20757;-70
2023/06/28 00:39:40;;;;;;;12.27;3.38;;;14.90;99.90;;;;;;4992076;28;20098;-70
2023/06/28 00:42:06;;;;;;;11.25;4.30;;;14.90;99.90;;;;;;4987861;28;20068;-70
2023/06/28 00:44:31;;;;;;;12.40;3.88;;;14.90;99.90;;;;;;5006745;28;20050;-70
2023/06/28 00:46:58;;;;;;;10.50;4.07;;;14.90;99.90;;;;;;5007502;28;20038;-70
2023/06/28 00:49:29;;;;;;;11.60;3.92;;;14.90;99.90;;;;;;4997206;28;20057;-71
2023/06/28 00:51:55;;;;;;;10.48;3.70;;;14.90;99.90;;;;;;5005871;28;20390;-69
2023/06/28 00:54:22;;;;;;;9.90;3.75;;;14.90;99.90;;;;;;5009059;28;20197;-70
2023/06/28 00:56:48;;;;;;;10.77;3.85;;;14.80;99.90;;;;;;4999530;28;20407;-71
2023/06/28 00:59:15;;;;;;;12.88;3.72;;;14.80;99.90;;;;;;5007954;28;20042;-71
2023/06/28 01:01:41;;;;;;;11.50;4.22;;;14.80;99.90;;;;;;4992608;28;20045;-70
2023/06/28 01:04:07;;;;;;;9.55;3.65;;;14.80;99.90;;;;;;5007662;28;20185;-70
2023/06/28 01:06:36;;;;;;;8.77;3.83;;;14.80;99.90;;;;;;4991022;28;20116;-70
2023/06/28 01:09:09;;;;;;;15.05;3.95;;;14.80;99.90;;;;;;5004211;28;20045;-70
2023/06/28 01:11:35;;;;;;;14.05;4.35;;;14.80;99.90;;;;;;5005932;28;20119;-71
2023/06/28 01:14:02;;;;;;;11.48;4.13;;;14.80;99.90;;;;;;5008395;28;20042;-70
2023/06/28 01:16:28;;;;;;;12.32;3.65;;;14.80;99.90;;;;;;5008457;28;20046;-70
2023/06/28 01:18:54;;;;;;;12.57;4.55;;;14.70;99.90;;;;;;4990234;28;20038;-71
2023/06/28 01:21:23;;;;;;;8.75;3.63;;;14.70;99.90;;;;;;5008905;28;20085;-67
2023/06/28 01:23:48;;;;;;;10.18;3.47;;;14.70;99.90;;;;;;4990811;28;20061;-67
2023/06/28 01:26:16;;;;;;;10.93;4.03;;;14.70;99.90;;;;;;5007742;28;20820;-67
2023/06/28 01:28:44;;;;;;;9.20;3.53;;;14.70;99.90;;;;;;5007325;28;20080;-67
2023/06/28 01:31:11;;;;;;;10.32;4.10;;;14.70;99.90;;;;;;5007708;28;20129;-67
2023/06/28 01:33:38;;;;;;;9.98;3.50;;;14.70;99.90;;;;;;5005554;28;20162;-66
2023/06/28 01:36:04;;;;;;;11.38;3.65;;;14.70;99.90;;;;;;5006853;28;20054;-67
2023/06/28 01:38:31;;;;;;;11.70;4.10;;;14.70;99.90;;;;;;5005981;28;20057;-67
2023/06/28 01:40:58;;;;;;;10.38;4.03;;;14.70;99.90;;;;;;5009066;28;20034;-67
2023/06/28 01:43:24;;;;;;;9.90;3.95;;;14.70;99.90;;;;;;5007340;28;20062;-67
2023/06/28 01:45:51;;;;;;;9.77;3.47;;;14.70;99.90;;;;;;5006788;28;20075;-67
2023/06/28 01:48:19;;;;;;;8.00;3.45;;;14.70;99.90;;;;;;5006800;28;20081;-68
2023/06/28 01:50:45;;;;;;;11.00;3.60;;;14.60;99.90;;;;;;5007737;28;20050;-67
2023/06/28 01:53:13;;;;;;;9.60;3.47;;;14.60;99.90;;;;;;5006390;28;20042;-66
2023/06/28 01:55:38;;;;;;;11.00;3.67;;;14.60;99.90;;;;;;5007567;28;20049;-65
2023/06/28 01:58:04;;;;;;;11.07;3.75;;;14.60;99.90;;;;;;5008641;28;20037;-67
2023/06/28 02:00:30;;;;;;;12.07;3.53;;;14.60;99.90;;;;;;4991933;28;20064;-67
2023/06/28 02:02:56;;;;;;;7.93;3.33;;;14.60;99.90;;;;;;5006833;28;20049;-67
2023/06/28 02:05:22;;;;;;;10.32;4.15;;;14.60;99.90;;;;;;5006811;28;20049;-67
2023/06/28 02:07:47;;;;;;;9.70;3.70;;;14.60;99.90;;;;;;5008703;28;20034;-67
2023/06/28 02:10:13;;;;;;;10.75;3.88;;;14.60;99.90;;;;;;5007250;28;20061;-66
2023/06/28 02:12:39;;;;;;;16.48;4.38;;;14.60;99.90;;;;;;4990591;28;20046;-66
2023/06/28 02:15:06;;;;;;;13.30;4.07;;;14.60;99.90;;;;;;4989828;28;20045;-67
2023/06/28 02:17:32;;;;;;;12.68;3.80;;;14.60;99.90;;;;;;5007441;28;20054;-66
2023/06/28 02:19:58;;;;;;;12.48;4.15;;;14.60;99.90;;;;;;5009344;28;20104;-67
2023/06/28 02:22:25;;;;;;;12.25;4.20;;;14.60;99.90;;;;;;5007508;28;20403;-67
2023/06/28 02:24:51;;;;;;;10.88;4.03;;;14.60;99.90;;;;;;4989698;28;20565;-67
2023/06/28 02:27:17;;;;;;;10.82;4.68;;;14.60;99.90;;;;;;5007277;28;20128;-67
2023/06/28 02:29:43;;;;;;;9.82;4.13;;;14.60;99.90;;;;;;5006220;28;20173;-68
2023/06/28 02:32:09;;;;;;;10.65;4.60;;;14.60;99.90;;;;;;4990109;28;21235;-68
2023/06/28 02:34:35;;;;;;;13.10;4.10;;;14.60;99.90;;;;;;5006104;28;20050;-67
2023/06/28 02:37:01;;;;;;;10.40;4.63;;;14.60;99.90;;;;;;4989995;28;20045;-67
2023/06/28 02:39:27;;;;;;;11.63;4.15;;;14.60;99.90;;;;;;4989081;28;20050;-67
2023/06/28 02:41:52;;;;;;;15.05;4.43;;;14.60;99.90;;;;;;4990166;28;20046;-68
2023/06/28 02:44:18;;;;;;;15.48;5.03;;;14.60;99.90;;;;;;4989597;28;20495;-68
2023/06/28 02:46:44;;;;;;;11.43;5.18;;;14.60;99.90;;;;;;5006398;28;20038;-68
2023/06/28 02:49:10;;;;;;;13.60;4.70;;;14.60;99.90;;;;;;5005266;28;20384;-67
2023/06/28 02:51:36;;;;;;;11.88;4.90;;;14.60;99.90;;;;;;5006103;28;20713;-67
2023/06/28 02:54:02;;;;;;;12.40;4.82;;;14.60;99.90;;;;;;5006036;28;20049;-67
2023/06/28 02:56:28;;;;;;;10.98;5.10;;;14.60;99.90;;;;;;5005681;28;20045;-66
2023/06/28 02:58:54;;;;;;;11.80;5.20;;;14.60;99.90;;;;;;5006089;28;20069;-67
2023/06/28 03:01:20;;;;;;;10.80;5.05;;;14.60;99.90;;;;;;5006065;28;20102;-66
2023/06/28 03:03:47;;;;;;;10.57;4.45;;;14.60;99.90;;;;;;4989435;28;20042;-67
2023/06/28 03:06:14;;;;;;;8.25;4.32;;;14.60;99.90;;;;;;5003958;28;20037;-66
2023/06/28 03:08:41;;;;;;;12.38;4.78;;;14.60;99.90;;;;;;5004719;28;20053;-67
2023/06/28 03:11:07;;;;;;;12.13;4.80;;;14.60;99.90;;;;;;5006694;28;20180;-67
2023/06/28 03:13:33;;;;;;;10.30;4.18;;;14.60;99.90;;;;;;5006169;28;20088;-67
2023/06/28 03:15:59;;;;;;;9.85;3.92;;;14.60;99.90;;;;;;5006269;28;20049;-67
2023/06/28 03:18:25;;;;;;;13.48;4.28;;;14.60;99.90;;;;;;5002942;28;20057;-67
2023/06/28 03:20:51;;;;;;;9.98;3.95;;;14.60;99.90;;;;;;5005456;28;20297;-67
2023/06/28 03:23:17;;;;;;;10.85;4.18;;;14.70;99.90;;;;;;4988170;28;20046;-67
2023/06/28 03:25:43;;;;;;;10.38;4.10;;;14.70;99.90;;;;;;5001619;28;20046;-68
2023/06/28 03:28:08;;;;;;;10.52;4.18;;;14.70;99.90;;;;;;5005656;28;20065;-69
2023/06/28 03:30:34;;;;;;;10.75;4.00;;;14.70;99.90;;;;;;5005288;28;20049;-68
2023/06/28 03:33:00;;;;;;;7.18;3.83;;;14.70;99.90;;;;;;5007346;28;20053;-66
2023/06/28 03:35:25;;;;;;;11.10;3.78;;;14.70;99.90;;;;;;5006122;28;20045;-66
2023/06/28 03:37:53;;;;;;;9.75;4.30;;;14.70;99.90;;;;;;5004219;28;20054;-66
2023/06/28 03:40:19;;;;;;;10.70;3.75;;;14.70;99.90;;;;;;5003194;28;20041;-68
2023/06/28 03:42:47;;;;;;;7.63;3.30;;;14.70;99.90;;;;;;5005713;28;20531;-67
2023/06/28 03:45:13;;;;;;;6.75;3.60;;;14.70;99.90;;;;;;5003060;28;20068;-67
2023/06/28 03:47:39;;;;;;;8.07;3.20;;;14.70;99.90;;;;;;5003043;28;20579;-68
2023/06/28 03:50:06;;;;;;;9.02;3.20;;;14.70;99.90;;;;;;5004465;28;20116;-67
2023/06/28 03:52:31;;;;;;;8.30;3.42;;;14.70;99.90;;;;;;5007471;28;20045;-68
2023/06/28 03:54:57;;;;;;;7.65;2.75;;;14.70;99.90;;;;;;5005476;28;20061;-66
2023/06/28 03:57:23;;;;;;;11.38;3.35;;;14.70;99.90;;;;;;5005873;28;20049;-65
2023/06/28 03:59:48;;;;;;;9.63;2.80;;;14.70;99.90;;;;;;5003978;28;20081;-66
2023/06/28 04:02:15;;;;;;;7.60;2.70;;;14.70;99.90;;;;;;5005420;28;20057;-68
2023/06/28 04:04:41;;;;;;;7.90;2.80;;;14.70;99.90;;;;;;5008335;28;20048;-67
2023/06/28 04:07:07;;;;;;;6.85;2.80;;;14.70;99.90;;;;;;5007890;28;20046;-68
2023/06/28 04:09:33;;;;;;;8.10;2.92;;;14.70;99.90;;;;;;5006285;28;20069;-68
2023/06/28 04:11:59;;;;;;;6.72;2.40;;;14.80;99.90;;;;;;5007046;28;20396;-67
2023/06/28 04:14:25;;;;;;;7.15;2.50;;;14.80;99.90;;;;;;5008547;28;20084;-65
2023/06/28 04:16:53;;;;;;;6.30;2.88;;;14.80;99.90;;;;;;4989243;28;20042;-65
2023/06/28 04:19:19;;;;;;;10.43;3.05;;;14.80;99.90;;;;;;5006541;28;20041;-65
2023/06/28 04:21:45;;;;;;;9.27;2.55;;;14.80;99.90;;;;;;5008945;28;20414;-66
2023/06/28 04:24:11;;;;;;;8.13;3.05;;;14.80;99.90;;;;;;5005332;28;20404;-67
2023/06/28 04:26:36;;;;;;;9.02;2.92;;;14.80;99.90;;;;;;5005248;28;20466;-66
2023/06/28 04:29:03;;;;;;;7.95;2.88;;;14.80;99.90;;;;;;5007518;28;20626;-68
2023/06/28 04:31:29;;;;;;;7.10;3.33;;;14.80;99.90;;;;;;4991238;28;20649;-68
2023/06/28 04:33:57;;;;;;;10.48;3.35;;;14.80;99.90;;;;;;4991831;28;20132;-68
2023/06/28 04:36:25;;;;;;;8.05;2.97;;;14.80;99.90;;;;;;5003867;28;20104;-68
2023/06/28 04:38:54;;;;;;;9.15;3.58;;;14.80;99.90;;;;;;5005728;28;20631;-67
2023/06/28 04:41:25;;;;;;;10.18;3.58;;;14.80;99.90;;;;;;4990686;28;20045;-68
2023/06/28 04:43:54;;;;;;;10.27;3.63;;;14.90;99.90;;;;;;5004537;28;20045;-68
2023/06/28 04:46:22;;;;;;;8.20;3.45;;;14.90;99.90;;;;;;5003815;28;20100;-66
2023/06/28 04:48:52;;;;;;;8.20;4.10;;;14.90;99.90;;;;;;5002404;28;20073;-66
2023/06/28 04:51:18;;;;;;;9.50;3.50;;;14.90;99.90;;;;;;5002291;28;20108;-65
2023/06/28 04:53:44;;;;;;;8.38;3.13;;;14.90;99.90;;;;;;5007551;28;20045;-66
2023/06/28 04:56:09;;;;;;;9.82;3.30;;;14.90;99.90;;;;;;5007167;28;20048;-68
2023/06/28 04:58:37;;;;;;;7.93;3.45;;;14.90;99.90;;;;;;5007906;28;20486;-68
2023/06/28 05:01:06;;;;;;;8.85;3.50;;;14.90;99.90;;;;;;4996724;28;20042;-68
2023/06/28 05:03:32;;;;;;;8.02;3.08;;;14.90;99.90;;;;;;5001460;28;20099;-67
2023/06/28 05:05:57;;;;;;;7.57;3.10;;;14.90;99.90;;;;;;5003341;28;20037;-68
2023/06/28 05:08:23;;;;;;;9.23;3.65;;;15.00;99.90;;;;;;5000567;28;20050;-68
2023/06/28 05:10:49;;;;;;;7.95;3.58;;;15.00;99.90;;;;;;5000577;28;20788;-67
2023/06/28 05:13:15;;;;;;;8.93;3.70;;;15.00;99.90;;;;;;5006939;28;20558;-68
2023/06/28 05:15:42;;;;;;;11.55;4.40;;;15.00;99.90;;;;;;5008281;28;20144;-68
2023/06/28 05:18:08;;;;;;;8.80;4.40;;;15.00;99.90;;;;;;5000574;28;20099;-66
2023/06/28 05:20:33;;;;;;;8.60;3.88;;;15.00;99.90;;;;;;4996670;28;20821;-68
2023/06/28 05:23:10;;;;;;;9.88;3.65;;;15.00;99.90;;;;;;4995433;28;20060;-68
2023/06/28 05:25:37;;;;;;;10.25;4.93;;;15.00;99.90;;;;;;5006749;28;20380;-68
2023/06/28 05:28:02;;;;;;;8.93;4.18;;;15.00;99.90;;;;;;5003698;28;20050;-68
2023/06/28 05:30:28;;;;;;;12.95;4.00;;;15.00;99.90;;;;;;5003704;28;20111;-67
2023/06/28 05:32:54;;;;;;;8.25;4.10;;;15.10;99.90;;;;;;5000185;28;20042;-67
2023/06/28 05:35:20;;;;;;;9.63;4.72;;;15.10;99.90;;;;;;5005145;28;20521;-68
2023/06/28 05:37:45;;;;;;;11.38;4.18;;;15.10;99.90;;;;;;5007962;28;20046;-68
2023/06/28 05:40:11;;;;;;;9.07;4.10;;;15.10;99.90;;;;;;5003412;28;20103;-68
2023/06/28 05:42:37;;;;;;;7.95;3.92;;;15.20;99.90;;;;;;5004150;28;20513;-68
2023/06/28 05:45:03;;;;;;;12.70;4.38;;;15.10;99.90;;;;;;5016646;28;20045;-68
2023/06/28 05:47:29;;;;;;;8.73;4.07;;;15.20;99.90;;;;;;5000963;28;20065;-68
2023/06/28 05:49:54;;;;;;;7.45;3.70;;;15.20;99.90;;;;;;4994110;28;20092;-67
2023/06/28 05:52:20;;;;;;;8.48;3.83;;;15.20;99.90;;;;;;4988818;28;20050;-67
2023/06/28 05:54:46;;;;;;;8.18;3.63;;;15.20;99.90;;;;;;4994713;28;20164;-65
2023/06/28 05:57:12;;;;;;;8.70;3.83;;;15.30;99.90;;;;;;4993461;28;20038;-67
2023/06/28 05:59:38;;;;;;;10.25;4.20;;;15.30;99.90;;;;;;4993847;28;20112;-68
2023/06/28 06:02:04;;;;;;;10.32;3.75;;;15.30;99.90;;;;;;4990144;28;20042;-68
2023/06/28 06:04:30;;;;;;;8.15;4.32;;;15.30;99.90;;;;;;4990350;28;20061;-68
2023/06/28 06:06:56;;;;;;;11.52;4.60;;;15.40;99.90;;;;;;4975999;28;20088;-68
2023/06/28 06:09:21;;;;;;;10.18;4.45;;;15.30;99.90;;;;;;4990279;28;20049;-72
2023/06/28 06:11:47;;;;;;;12.35;4.43;;;15.40;99.90;;;;;;5005281;28;20042;-69
2023/06/28 06:14:16;;;;;;;8.43;4.32;;;15.40;99.90;;;;;;4988233;28;20038;-71
2023/06/28 06:16:41;;;;;;;9.20;4.38;;;15.40;99.90;;;;;;4985949;28;20127;-71
2023/06/28 06:19:07;;;;;;;10.02;4.75;;;15.40;99.90;;;;;;4993056;28;20795;-71
2023/06/28 06:21:33;;;;;;;11.13;4.60;;;15.50;99.90;;;;;;4990903;28;20061;-71
2023/06/28 06:23:59;;;;;;;11.80;4.63;;;15.50;99.90;;;;;;4992685;28;20046;-72
2023/06/28 06:26:27;;;;;;;10.70;5.35;;;15.50;99.90;;;;;;4974033;28;22651;-72
2023/06/28 06:28:53;;;;;;;11.60;4.95;;;15.50;99.90;;;;;;4995878;28;20053;-71
2023/06/28 06:31:19;;;;;;;10.77;5.15;;;15.50;99.90;;;;;;4993680;28;20034;-72
2023/06/28 06:33:45;;;;;;;12.15;4.80;;;15.50;99.90;;;;;;4991974;28;20064;-71
2023/06/28 06:36:10;;;;;;;13.90;5.70;;;15.60;99.90;;;;;;4991988;28;20503;-72
2023/06/28 06:38:37;;;;;;;13.48;5.88;;;15.60;99.90;;;;;;5006283;28;20046;-71
2023/06/28 06:41:03;;;;;;;10.38;5.40;;;15.60;99.90;;;;;;5002992;28;20057;-71
2023/06/28 06:43:29;;;;;;;12.63;5.43;;;15.60;99.90;;;;;;5003550;28;20042;-71
2023/06/28 06:45:54;;;;;;;13.23;5.90;;;15.60;99.90;;;;;;5004941;28;20101;-71
2023/06/28 06:48:20;;;;;;;13.20;5.70;;;15.60;99.90;;;;;;5003559;28;20046;-71
2023/06/28 06:50:46;;;;;;;11.90;5.70;;;15.60;99.90;;;;;;5002713;28;20057;-71
2023/06/28 06:53:12;;;;;;;12.50;6.00;;;15.60;99.90;;;;;;5003837;28;20054;-71
2023/06/28 06:55:37;;;;;;;12.60;5.82;;;15.60;99.90;;;;;;5002687;28;20041;-71
2023/06/28 06:58:03;;;;;;;15.25;6.63;;;15.60;99.90;;;;;;5001995;28;20034;-71
2023/06/28 07:00:29;;;;;;;13.02;5.90;;;15.60;99.90;;;;;;5005969;28;20133;-71
2023/06/28 07:02:54;;;;;;;12.45;6.40;;;15.60;99.90;;;;;;5006358;28;20061;-71
2023/06/28 07:05:20;;;;;;;14.32;6.57;;;15.60;99.90;;;;;;5008015;28;20048;-71
2023/06/28 07:07:46;;;;;;;14.68;6.00;;;15.60;99.90;;;;;;5004597;28;20050;-71
2023/06/28 07:10:11;;;;;;;16.17;6.13;;;15.60;99.90;;;;;;5003897;28;20046;-71
2023/06/28 07:12:37;;;;;;;11.43;6.82;;;15.60;99.90;;;;;;5004281;28;20053;-71
2023/06/28 07:15:03;;;;;;;16.05;6.82;;;15.60;99.90;;;;;;5004999;28;20045;-71
2023/06/28 07:17:30;;;;;;;15.68;6.95;;;15.70;99.90;;;;;;5005715;28;20450;-71
2023/06/28 07:19:56;;;;;;;11.52;6.30;;;15.70;99.90;;;;;;5002110;28;20392;-71
2023/06/28 07:22:22;;;;;;;13.55;5.97;;;15.70;99.90;;;;;;4987828;28;20076;-71
2023/06/28 07:24:48;;;;;;;12.00;6.35;;;15.70;99.90;;;;;;5006135;28;20049;-71
2023/06/28 07:27:13;;;;;;;15.45;7.60;;;15.80;99.90;;;;;;4997654;28;20093;-71
2023/06/28 07:29:39;;;;;;;16.52;7.03;;;15.80;99.90;;;;;;5002849;28;20235;-70
2023/06/28 07:32:05;;;;;;;14.00;7.03;;;15.80;99.90;;;;;;5005707;28;20046;-71
2023/06/28 07:34:31;;;;;;;14.85;6.70;;;15.80;99.90;;;;;;5005030;28;20048;-70
2023/06/28 07:36:57;;;;;;;16.48;6.72;;;15.90;99.90;;;;;;5002684;28;20141;-71
2023/06/28 07:39:23;;;;;;;13.50;6.80;;;15.90;99.90;;;;;;5004015;28;20131;-70
2023/06/28 07:41:48;;;;;;;12.05;7.43;;;15.90;99.90;;;;;;5006749;28;20053;-71
2023/06/28 07:44:14;;;;;;;13.68;7.03;;;15.90;99.90;;;;;;4988540;28;20392;-70
2023/06/28 07:46:40;;;;;;;13.95;6.78;;;15.90;99.90;;;;;;4988846;28;20183;-71
2023/06/28 07:49:05;;;;;;;14.45;6.90;;;16.00;99.90;;;;;;5006224;28;20398;-71
2023/06/28 07:51:31;;;;;;;13.07;6.90;;;16.00;99.90;;;;;;5004541;28;20590;-71
2023/06/28 07:53:57;;;;;;;13.00;6.50;;;16.00;99.90;;;;;;5002303;28;20046;-71
2023/06/28 07:56:22;;;;;;;14.35;6.50;;;16.00;99.90;;;;;;4989113;28;20732;-71
2023/06/28 07:58:48;;;;;;;16.45;7.38;;;16.00;99.90;;;;;;5001313;28;20107;-71
2023/06/28 08:01:15;;;;;;;13.50;7.20;;;16.00;99.90;;;;;;5002048;28;20670;-71
2023/06/28 08:03:41;;;;;;;14.95;6.22;;;16.10;99.90;;;;;;4989061;28;20258;-72
2023/06/28 08:06:10;;;;;;;16.83;7.10;;;16.10;99.90;;;;;;5008753;28;20107;-70
2023/06/28 08:08:36;;;;;;;14.30;7.57;;;16.10;99.90;;;;;;5005340;28;20030;-71
2023/06/28 08:11:01;;;;;;;16.30;7.40;;;16.20;99.90;;;;;;5003586;28;20461;-71
2023/06/28 08:13:27;;;;;;;13.27;6.45;;;16.10;99.90;;;;;;4997759;28;20301;-71
2023/06/28 08:15:53;;;;;;;20.88;8.35;;;16.20;99.90;;;;;;5003790;28;20053;-71
2023/06/28 08:18:18;;;;;;;14.93;7.00;;;16.20;99.90;;;;;;5003916;28;20042;-72
2023/06/28 08:20:44;;;;;;;15.73;6.93;;;16.20;99.90;;;;;;5004926;28;20108;-71
2023/06/28 08:23:10;;;;;;;17.08;6.95;;;16.20;99.90;;;;;;4989691;28;20054;-71
2023/06/28 08:25:36;;;;;;;14.23;6.72;;;16.20;99.90;;;;;;5002662;28;20065;-72
2023/06/28 08:28:02;;;;;;;13.15;6.47;;;16.30;99.90;;;;;;4985086;28;20442;-71
2023/06/28 08:30:27;;;;;;;17.58;8.02;;;16.30;99.90;;;;;;4999503;28;20136;-72
2023/06/28 08:32:53;;;;;;;15.95;7.93;;;16.30;99.90;;;;;;5001990;28;20065;-71
2023/06/28 08:35:19;;;;;;;15.90;7.97;;;16.30;99.90;;;;;;4994515;28;20045;-71
2023/06/28 08:37:45;;;;;;;16.10;7.55;;;16.30;99.90;;;;;;4974188;28;20132;-72
2023/06/28 08:40:11;;;;;;;16.60;7.97;;;16.30;99.90;;;;;;4973339;28;20054;-71
2023/06/28 08:42:41;;;;;;;14.75;6.97;;;16.30;99.90;;;;;;4986834;28;20060;-71
2023/06/28 08:45:07;;;;;;;15.00;7.75;;;16.30;99.90;;;;;;5003260;28;20065;-71
2023/06/28 08:47:35;;;;;;;14.10;7.75;;;16.30;99.90;;;;;;4985992;28;20050;-71
2023/06/28 08:50:02;;;;;;;12.38;7.80;;;16.30;99.90;;;;;;4985619;28;20057;-71
2023/06/28 08:52:28;;;;;;;13.75;8.00;;;16.40;99.90;;;;;;4993470;28;20129;-71
2023/06/28 08:54:56;;;;;;;14.00;7.95;;;16.30;99.90;;;;;;4995772;28;20050;-71
2023/06/28 08:57:22;;;;;;;13.95;7.63;;;16.30;99.90;;;;;;5007641;28;20352;-71
2023/06/28 08:59:48;;;;;;;18.08;9.25;;;16.30;99.90;;;;;;4994289;28;20143;-71
2023/06/28 09:02:17;;;;;;;13.80;8.75;;;16.30;99.90;;;;;;4993396;28;20073;-71
2023/06/28 09:04:44;;;;;;;14.60;9.00;;;16.30;99.90;;;;;;4999487;28;20440;-71
2023/06/28 09:07:14;;;;;;;17.98;10.23;;;16.30;99.90;;;;;;4993501;28;20046;-71
2023/06/28 09:09:42;;;;;;;15.60;9.40;;;16.30;99.90;;;;;;4994307;28;20368;-71
2023/06/28 09:12:09;;;;;;;16.98;9.32;;;16.30;99.90;;;;;;4990207;28;20161;-71
2023/06/28 09:14:35;;;;;;;21.95;11.68;;;16.30;99.90;;;;;;4992591;28;20046;-71
2023/06/28 09:17:01;;;;;;;16.90;9.52;;;16.30;99.90;;;;;;4989089;28;20072;-71
2023/06/28 09:19:26;;;;;;;16.52;9.00;;;16.30;99.90;;;;;;4976676;28;20103;-71
2023/06/28 09:22:00;;;;;;;16.65;10.07;;;16.40;99.90;;;;;;4991549;28;20096;-72
2023/06/28 09:24:26;;;;;;;18.00;9.35;;;16.40;99.90;;;;;;4988073;28;20127;-72
2023/06/28 09:26:52;;;;;;;18.38;8.95;;;16.40;99.90;;;;;;4988462;28;20045;-67
2023/06/28 09:29:17;;;;;;;18.77;9.25;;;16.50;99.90;;;;;;4973212;28;20053;-67
2023/06/28 09:31:47;;;;;;;14.38;9.68;;;16.50;99.90;;;;;;4988923;28;20108;-67
2023/06/28 09:34:13;;;;;;;17.52;9.77;;;16.50;99.90;;;;;;4990655;28;20211;-67
2023/06/28 09:36:38;;;;;;;19.05;10.55;;;16.50;99.90;;;;;;5004297;28;20084;-66
2023/06/28 09:39:05;;;;;;;20.05;10.48;;;16.50;99.90;;;;;;4987909;28;20042;-67
2023/06/28 09:41:38;;;;;;;16.30;8.52;;;16.50;99.90;;;;;;4987936;28;20060;-68
2023/06/28 09:44:06;;;;;;;13.98;9.90;;;16.50;99.90;;;;;;5004755;28;20487;-68
2023/06/28 09:46:33;;;;;;;15.73;10.23;;;16.50;99.90;;;;;;4988499;28;20164;-68
2023/06/28 09:48:59;;;;;;;20.60;9.80;;;16.60;99.90;;;;;;4987699;28;20052;-68
2023/06/28 09:51:25;;;;;;;19.38;10.55;;;16.60;99.90;;;;;;5003565;28;21017;-68
2023/06/28 09:53:58;;;;;;;19.92;10.00;;;16.60;99.90;;;;;;4975936;28;20049;-68
2023/06/28 09:56:34;;;;;;;17.98;10.57;;;16.60;99.90;;;;;;4988258;28;20042;-67
2023/06/28 09:59:06;;;;;;;17.02;10.63;;;16.60;99.90;;;;;;4986330;28;20054;-67
2023/06/28 10:01:33;;;;;;;;;;;16.70;99.90;;;;;;4985930;28;20064;-68
2023/06/28 10:04:00;;;;;;;18.33;10.68;;;16.70;99.90;;;;;;5004717;28;19937;-68
2023/06/28 10:06:27;;;;;;;18.40;10.65;;;16.70;99.90;;;;;;4987940;28;20045;-67
2023/06/28 10:08:53;;;;;;;16.70;10.02;;;16.70;99.90;;;;;;4986570;28;20726;-67
2023/06/28 10:11:21;;;;;;;18.95;11.57;;;16.80;99.90;;;;;;4989330;28;20081;-68
2023/06/28 10:13:49;;;;;;;18.70;10.93;;;16.80;99.90;;;;;;4989395;28;20112;-68
2023/06/28 10:16:24;;;;;;;16.70;10.32;;;16.90;99.90;;;;;;4989354;28;20080;-68
2023/06/28 10:18:50;;;;;;;17.00;10.43;;;16.90;99.90;;;;;;4988413;28;20046;-68
2023/06/28 10:21:17;;;;;;;17.60;10.93;;;16.90;99.90;;;;;;4987453;28;20335;-68
2023/06/28 10:23:44;;;;;;;15.80;10.27;;;16.90;99.90;;;;;;4985949;28;20523;-67
2023/06/28 10:26:12;;;;;;;15.63;10.07;;;17.00;99.90;;;;;;4988363;28;20057;-67
2023/06/28 10:28:40;;;;;;;17.90;10.07;;;17.00;99.90;;;;;;4989725;28;21387;-67
2023/06/28 10:31:07;;;;;;;15.30;9.45;;;16.90;99.90;;;;;;4989559;28;20683;-66
2023/06/28 10:33:36;;;;;;;14.65;9.40;;;17.00;99.90;;;;;;4987755;28;20050;-67
2023/06/28 10:36:03;;;;;;;14.63;9.27;;;17.00;99.90;;;;;;4986485;28;20049;-68
2023/06/28 10:38:45;;;;;;;14.40;9.73;;;17.10;99.90;;;;;;4982338;28;20049;-72
2023/06/28 10:41:19;;;;;;;18.88;10.95;;;17.10;99.90;;;;;;4983580;28;20053;-73
2023/06/28 10:43:45;;;;;;;16.45;10.15;;;17.10;99.90;;;;;;4987336;28;20778;-73
2023/06/28 10:46:24;;;;;;;16.67;10.48;;;17.10;99.90;;;;;;4989767;28;20045;-74
2023/06/28 10:48:59;;;;;;;15.55;9.73;;;17.20;99.90;;;;;;4983370;28;20818;-72
2023/06/28 10:51:30;;;;;;;15.00;10.48;;;17.10;99.90;;;;;;4988433;28;20060;-70
2023/06/28 10:54:10;;;;;;;;;;;17.10;99.90;;;;;;4984574;28;20056;-72
2023/06/28 10:56:50;;;;;;;16.45;11.30;;;17.20;99.90;;;;;;4989739;28;20107;-72
2023/06/28 10:59:17;;;;;;;17.63;11.50;;;17.20;99.90;;;;;;4988319;28;20140;-71
2023/06/28 11:01:49;;;;;;;16.85;11.40;;;17.20;99.90;;;;;;4985429;28;20049;-68
2023/06/28 11:04:25;;;;;;;17.30;10.95;;;17.20;99.90;;;;;;4969397;28;20053;-68
2023/06/28 11:07:03;;;;;;;15.55;10.25;;;17.20;99.90;;;;;;4986061;28;20057;-68
2023/06/28 11:09:29;;;;;;;16.20;10.95;;;17.20;99.90;;;;;;4987848;28;20046;-68
2023/06/28 11:11:59;;;;;;;19.67;12.50;;;17.20;99.90;;;;;;4988663;28;20073;-68
2023/06/28 11:14:27;;;;;;;16.48;11.30;;;17.20;99.90;;;;;;4990775;28;20117;-68
2023/06/28 11:17:19;;;;;;;18.08;11.02;;;17.20;99.90;;;;;;5006169;28;20034;-68
2023/06/28 11:19:45;;;;;;;15.20;11.60;;;17.20;99.90;;;;;;4991937;28;20083;-67
2023/06/28 11:22:12;;;;;;;17.10;11.73;;;17.20;99.90;;;;;;4989765;28;20042;-69
2023/06/28 11:24:37;;;;;;;16.38;11.57;;;17.20;99.90;;;;;;4985752;28;20045;-68
2023/06/28 11:27:12;;;;;;;23.75;13.50;;;17.20;99.90;;;;;;4985009;28;20046;-68
2023/06/28 11:29:58;;;;;;;17.05;12.05;;;17.20;99.90;;;;;;4988222;28;20061;-68
2023/06/28 11:32:26;;;;;;;17.00;11.98;;;17.20;99.90;;;;;;4992161;28;20410;-68
2023/06/28 11:34:54;;;;;;;14.27;11.57;;;17.20;99.90;;;;;;5003225;28;20042;-66
2023/06/28 11:37:22;;;;;;;18.45;12.48;;;17.30;99.90;;;;;;4986624;28;20104;-68
2023/06/28 11:39:49;;;;;;;18.85;12.77;;;17.30;99.90;;;;;;4988459;28;20414;-68
2023/06/28 11:42:15;;;;;;;21.20;13.60;;;17.30;99.90;;;;;;4989261;28;20056;-68
2023/06/28 11:44:48;;;;;;;16.30;12.63;;;17.30;99.90;;;;;;4990027;28;20046;-68
2023/06/28 11:47:22;;;;;;;17.90;14.05;;;17.30;99.90;;;;;;4989091;28;20077;-68
2023/06/28 11:49:49;;;;;;;16.98;12.70;;;17.30;99.90;;;;;;4991324;28;20046;-67
2023/06/28 11:52:20;;;;;;;19.60;13.98;;;17.30;99.90;;;;;;4992872;28;20046;-69
2023/06/28 11:54:46;;;;;;;21.13;15.05;;;17.30;99.90;;;;;;4977044;28;20408;-68
2023/06/28 11:57:12;;;;;;;21.20;14.52;;;17.30;99.90;;;;;;4994945;28;20046;-68
2023/06/28 11:59:44;;;;;;;18.67;14.20;;;17.30;99.90;;;;;;4987827;28;20578;-68
2023/06/28 12:02:10;;;;;;;18.65;14.88;;;17.40;99.90;;;;;;4986221;28;20050;-67
2023/06/28 12:04:37;;;;;;;19.95;14.35;;;17.40;99.90;;;;;;4984618;28;20403;-67
2023/06/28 12:07:06;;;;;;;23.95;15.05;;;17.40;99.90;;;;;;4986574;28;20112;-68
2023/06/28 12:09:35;;;;;;;18.40;14.48;;;17.40;99.90;;;;;;4987141;28;20042;-66
2023/06/28 12:12:04;;;;;;;22.08;15.30;;;17.40;99.90;;;;;;4969285;28;20526;-67
2023/06/28 12:14:50;;;;;;;19.77;14.88;;;17.50;99.90;;;;;;4987515;28;20046;-68
2023/06/28 12:17:17;;;;;;;20.88;14.30;;;17.50;99.90;;;;;;4983459;28;20143;-67
2023/06/28 12:19:44;;;;;;;20.20;16.27;;;17.50;99.90;;;;;;4993769;28;20594;-67
2023/06/28 12:22:09;;;;;;;23.73;15.52;;;17.50;99.90;;;;;;4990222;28;20069;-67
2023/06/28 12:24:36;;;;;;;19.90;15.20;;;17.50;99.90;;;;;;5009823;28;20041;-67
2023/06/28 12:27:07;;;;;;;20.13;15.52;;;17.50;99.90;;;;;;4999913;28;20466;-67
2023/06/28 12:29:37;;;;;;;22.33;16.10;;;17.50;99.90;;;;;;4994933;28;20038;-67
2023/06/28 12:32:11;;;;;;;21.83;18.17;;;17.60;99.90;;;;;;4989927;28;20322;-68
2023/06/28 12:34:49;;;;;;;21.05;17.92;;;17.60;99.90;;;;;;4992726;28;20050;-67
2023/06/28 12:37:15;;;;;;;25.67;18.30;;;17.60;99.90;;;;;;5004741;28;20053;-67